• Join FlightAware (Why Join?)
  • Login
  • US Flag 
02:40PM EDT


 

Airport Tracker/Info


-or-


 

Live Flight TrackerFlight Track Log ✈ N720FL ✈ 30-Apr-2013 ✈ KTTA - KTTA

Flight Track Log - Related Links

Times and Time Zones

All times are in EDT time to prevent confusion due to time zone crossing. See the N720FL flight status page for this flight to view local times or setup timezone preferences in your user account.

Time Position Orientation Groundspeed Altitude Reporting Facility
EDT Latitude Longitude Course Direction KTS MPH feet Rate Location/Type
06:46PM 35.5864 -79.1319 268° West 93 107 1,600  Level Washington Center
06:47PM 35.5856 -79.1600 268° West 94 108 2,200 600 Climbing Washington Center
06:48PM 35.5825 -79.1906 263° West 96 110 2,800 420 Climbing Washington Center
06:49PM 35.5731 -79.2283 253° West 102 117 3,100 240 Climbing Washington Center
06:51PM 35.5798 -79.2798 279° West  Level FlightAware Approximate
06:58PM 35.5920 -79.3533 97° East  Level FlightAware Approximate
06:59PM 35.5885 -79.3184 97° East  Level FlightAware Approximate
07:00PM 35.5850 -79.2835 97° East  Level FlightAware Approximate
07:01PM 35.5833 -79.2485 90° East  Level FlightAware Approximate
07:02PM 35.5833 -79.2133 90° East  Level FlightAware Approximate
07:03PM 35.5823 -79.1783 104° East  Level FlightAware Approximate
07:04PM 35.5755 -79.1442 104° East  Level FlightAware Approximate
07:05PM 35.5687 -79.1101 104° East  Level FlightAware Approximate
07:06PM 35.5667 -79.1000 104° East  Level FlightAware Approximate
07:07PM 35.5824 -79.1013 104° East  Level Estimated
07:08PM 35.5824 -79.1013 104° East  Level Estimated
07:09PM 35.5824 -79.1013 104° East  Level Estimated
07:10PM 35.5824 -79.1013 104° East  Level Estimated
07:11PM 35.5824 -79.1013 104° East  Level Estimated
07:12PM 35.5824 -79.1013 104° East  Level Estimated
07:13PM 35.5824 -79.1013 104° East  Level Estimated
07:14PM 35.5824 -79.1013 104° East  Level Estimated
07:15PM 35.5824 -79.1013 104° East  Level Estimated
07:16PM 35.5824 -79.1013 104° East  Level Estimated
07:17PM 35.5824 -79.1013 104° East  Level Estimated